sensor_id;sensor_type;location;lat;lon;timestamp;P1;durP1;ratioP1;P2;durP2;ratioP2
9563;SDS011;4820;50.870;4.702;2023-02-01T00:01:55;14.82;;;7.63;;
9563;SDS011;4820;50.870;4.702;2023-02-01T00:04:22;16.30;;;7.57;;
9563;SDS011;4820;50.870;4.702;2023-02-01T00:06:48;13.98;;;7.53;;
9563;SDS011;4820;50.870;4.702;2023-02-01T00:09:14;15.88;;;6.78;;
9563;SDS011;4820;50.870;4.702;2023-02-01T00:11:40;14.68;;;6.65;;
9563;SDS011;4820;50.870;4.702;2023-02-01T00:14:06;15.07;;;6.40;;
9563;SDS011;4820;50.870;4.702;2023-02-01T00:16:33;16.10;;;6.85;;
9563;SDS011;4820;50.870;4.702;2023-02-01T00:21:29;13.32;;;5.68;;
9563;SDS011;4820;50.870;4.702;2023-02-01T00:23:55;15.35;;;5.57;;
9563;SDS011;4820;50.870;4.702;2023-02-01T00:26:23;13.23;;;5.78;;
9563;SDS011;4820;50.870;4.702;2023-02-01T00:29:02;12.60;;;5.00;;
9563;SDS011;4820;50.870;4.702;2023-02-01T00:31:30;16.55;;;4.97;;
9563;SDS011;4820;50.870;4.702;2023-02-01T00:33:56;12.90;;;5.10;;
9563;SDS011;4820;50.870;4.702;2023-02-01T00:36:22;14.15;;;5.45;;
9563;SDS011;4820;50.870;4.702;2023-02-01T00:38:47;12.57;;;5.50;;
9563;SDS011;4820;50.870;4.702;2023-02-01T00:41:14;11.77;;;5.43;;
9563;SDS011;4820;50.870;4.702;2023-02-01T00:43:41;14.73;;;5.85;;
9563;SDS011;4820;50.870;4.702;2023-02-01T00:46:07;14.95;;;5.95;;
9563;SDS011;4820;50.870;4.702;2023-02-01T00:48:33;15.10;;;6.13;;
9563;SDS011;4820;50.870;4.702;2023-02-01T00:51:03;13.90;;;5.80;;
9563;SDS011;4820;50.870;4.702;2023-02-01T00:53:32;15.43;;;6.00;;
9563;SDS011;4820;50.870;4.702;2023-02-01T00:55:57;10.88;;;6.32;;
9563;SDS011;4820;50.870;4.702;2023-02-01T00:58:23;15.82;;;6.60;;
9563;SDS011;4820;50.870;4.702;2023-02-01T01:01:00;14.40;;;6.80;;
9563;SDS011;4820;50.870;4.702;2023-02-01T01:03:39;15.95;;;6.55;;
9563;SDS011;4820;50.870;4.702;2023-02-01T01:06:08;18.70;;;6.40;;
9563;SDS011;4820;50.870;4.702;2023-02-01T01:08:38;13.60;;;5.90;;
9563;SDS011;4820;50.870;4.702;2023-02-01T01:13:36;16.35;;;6.82;;
9563;SDS011;4820;50.870;4.702;2023-02-01T01:16:02;12.80;;;6.15;;
9563;SDS011;4820;50.870;4.702;2023-02-01T01:18:30;12.65;;;6.22;;
9563;SDS011;4820;50.870;4.702;2023-02-01T01:20:58;17.38;;;6.63;;
9563;SDS011;4820;50.870;4.702;2023-02-01T01:23:24;11.07;;;5.55;;
9563;SDS011;4820;50.870;4.702;2023-02-01T01:25:50;15.18;;;6.28;;
9563;SDS011;4820;50.870;4.702;2023-02-01T01:28:17;14.45;;;5.90;;
9563;SDS011;4820;50.870;4.702;2023-02-01T01:30:44;15.02;;;6.10;;
9563;SDS011;4820;50.870;4.702;2023-02-01T01:33:10;17.63;;;5.93;;
9563;SDS011;4820;50.870;4.702;2023-02-01T01:35:36;11.57;;;5.60;;
9563;SDS011;4820;50.870;4.702;2023-02-01T01:38:01;15.13;;;5.28;;
9563;SDS011;4820;50.870;4.702;2023-02-01T01:40:27;12.23;;;5.32;;
9563;SDS011;4820;50.870;4.702;2023-02-01T01:42:54;15.95;;;5.90;;
9563;SDS011;4820;50.870;4.702;2023-02-01T01:45:25;11.85;;;5.72;;
9563;SDS011;4820;50.870;4.702;2023-02-01T01:47:58;15.05;;;5.68;;
9563;SDS011;4820;50.870;4.702;2023-02-01T01:50:31;13.57;;;5.10;;
9563;SDS011;4820;50.870;4.702;2023-02-01T01:53:03;14.63;;;5.00;;
9563;SDS011;4820;50.870;4.702;2023-02-01T01:55:31;15.07;;;5.55;;
9563;SDS011;4820;50.870;4.702;2023-02-01T01:58:02;15.57;;;5.88;;
9563;SDS011;4820;50.870;4.702;2023-02-01T02:00:30;14.32;;;5.10;;
9563;SDS011;4820;50.870;4.702;2023-02-01T02:03:03;11.60;;;4.88;;
9563;SDS011;4820;50.870;4.702;2023-02-01T02:08:06;16.67;;;5.25;;
9563;SDS011;4820;50.870;4.702;2023-02-01T02:10:32;15.23;;;4.72;;
9563;SDS011;4820;50.870;4.702;2023-02-01T02:13:17;13.88;;;4.90;;
9563;SDS011;4820;50.870;4.702;2023-02-01T02:15:54;15.27;;;4.75;;
9563;SDS011;4820;50.870;4.702;2023-02-01T02:18:36;11.02;;;4.10;;
9563;SDS011;4820;50.870;4.702;2023-02-01T02:21:56;13.52;;;4.65;;
9563;SDS011;4820;50.870;4.702;2023-02-01T02:38:13;12.18;;;3.75;;
9563;SDS011;4820;50.870;4.702;2023-02-01T02:43:32;13.40;;;4.28;;
9563;SDS011;4820;50.870;4.702;2023-02-01T02:46:29;13.55;;;3.75;;
9563;SDS011;4820;50.870;4.702;2023-02-01T02:52:05;15.18;;;4.00;;
9563;SDS011;4820;50.870;4.702;2023-02-01T02:54:56;10.20;;;3.92;;
9563;SDS011;4820;50.870;4.702;2023-02-01T03:00:14;13.20;;;3.78;;
9563;SDS011;4820;50.870;4.702;2023-02-01T03:03:01;10.77;;;3.60;;
9563;SDS011;4820;50.870;4.702;2023-02-01T03:05:47;11.30;;;3.63;;
9563;SDS011;4820;50.870;4.702;2023-02-01T03:08:21;12.70;;;3.95;;
9563;SDS011;4820;50.870;4.702;2023-02-01T03:16:22;12.95;;;3.33;;
9563;SDS011;4820;50.870;4.702;2023-02-01T03:18:52;11.18;;;3.88;;
9563;SDS011;4820;50.870;4.702;2023-02-01T03:24:38;10.23;;;3.42;;
9563;SDS011;4820;50.870;4.702;2023-02-01T03:27:20;11.13;;;2.83;;
9563;SDS011;4820;50.870;4.702;2023-02-01T03:29:51;9.85;;;3.22;;
9563;SDS011;4820;50.870;4.702;2023-02-01T03:32:27;14.95;;;3.78;;
9563;SDS011;4820;50.870;4.702;2023-02-01T03:34:53;10.98;;;3.35;;
9563;SDS011;4820;50.870;4.702;2023-02-01T03:37:23;11.52;;;3.50;;
9563;SDS011;4820;50.870;4.702;2023-02-01T03:40:02;10.82;;;3.33;;
9563;SDS011;4820;50.870;4.702;2023-02-01T03:42:40;11.32;;;3.47;;
9563;SDS011;4820;50.870;4.702;2023-02-01T03:45:18;14.63;;;3.67;;
9563;SDS011;4820;50.870;4.702;2023-02-01T03:47:46;9.50;;;3.53;;
9563;SDS011;4820;50.870;4.702;2023-02-01T03:50:18;11.20;;;4.13;;
9563;SDS011;4820;50.870;4.702;2023-02-01T03:52:55;14.70;;;4.15;;
9563;SDS011;4820;50.870;4.702;2023-02-01T03:55:34;12.75;;;4.07;;
9563;SDS011;4820;50.870;4.702;2023-02-01T04:00:39;13.38;;;4.00;;
9563;SDS011;4820;50.870;4.702;2023-02-01T04:03:09;14.60;;;3.55;;
9563;SDS011;4820;50.870;4.702;2023-02-01T04:05:35;16.42;;;4.13;;
9563;SDS011;4820;50.870;4.702;2023-02-01T04:08:00;11.25;;;3.33;;
9563;SDS011;4820;50.870;4.702;2023-02-01T04:10:26;12.68;;;3.70;;
9563;SDS011;4820;50.870;4.702;2023-02-01T04:12:52;11.30;;;3.65;;
9563;SDS011;4820;50.870;4.702;2023-02-01T04:15:18;15.30;;;4.47;;
9563;SDS011;4820;50.870;4.702;2023-02-01T04:17:43;11.45;;;3.33;;
9563;SDS011;4820;50.870;4.702;2023-02-01T04:20:10;13.40;;;3.97;;
9563;SDS011;4820;50.870;4.702;2023-02-01T04:22:36;13.82;;;3.92;;
9563;SDS011;4820;50.870;4.702;2023-02-01T04:25:02;13.35;;;3.80;;
9563;SDS011;4820;50.870;4.702;2023-02-01T04:27:31;9.43;;;3.58;;
9563;SDS011;4820;50.870;4.702;2023-02-01T04:29:57;12.15;;;4.05;;
9563;SDS011;4820;50.870;4.702;2023-02-01T04:32:23;9.13;;;3.17;;
9563;SDS011;4820;50.870;4.702;2023-02-01T04:34:48;13.05;;;3.83;;
9563;SDS011;4820;50.870;4.702;2023-02-01T04:37:14;11.10;;;3.40;;
9563;SDS011;4820;50.870;4.702;2023-02-01T04:39:40;12.00;;;3.40;;
9563;SDS011;4820;50.870;4.702;2023-02-01T04:42:05;12.85;;;4.15;;
9563;SDS011;4820;50.870;4.702;2023-02-01T04:44:31;12.75;;;3.90;;
9563;SDS011;4820;50.870;4.702;2023-02-01T04:46:56;10.23;;;3.13;;
9563;SDS011;4820;50.870;4.702;2023-02-01T04:49:22;15.02;;;4.05;;
9563;SDS011;4820;50.870;4.702;2023-02-01T04:51:50;11.30;;;3.60;;
9563;SDS011;4820;50.870;4.702;2023-02-01T04:54:16;16.55;;;4.00;;
9563;SDS011;4820;50.870;4.702;2023-02-01T04:56:41;12.02;;;3.33;;
9563;SDS011;4820;50.870;4.702;2023-02-01T04:59:07;17.10;;;4.45;;
9563;SDS011;4820;50.870;4.702;2023-02-01T05:01:34;16.25;;;4.13;;
9563;SDS011;4820;50.870;4.702;2023-02-01T05:04:00;13.70;;;3.45;;
9563;SDS011;4820;50.870;4.702;2023-02-01T05:06:25;16.67;;;3.90;;
9563;SDS011;4820;50.870;4.702;2023-02-01T05:08:51;13.40;;;3.47;;
9563;SDS011;4820;50.870;4.702;2023-02-01T05:11:17;15.32;;;3.67;;
9563;SDS011;4820;50.870;4.702;2023-02-01T05:14:01;17.35;;;4.00;;
9563;SDS011;4820;50.870;4.702;2023-02-01T05:16:27;16.20;;;3.60;;
9563;SDS011;4820;50.870;4.702;2023-02-01T05:18:52;13.75;;;3.65;;
9563;SDS011;4820;50.870;4.702;2023-02-01T05:21:18;11.32;;;3.88;;
9563;SDS011;4820;50.870;4.702;2023-02-01T05:23:44;14.57;;;4.03;;
9563;SDS011;4820;50.870;4.702;2023-02-01T05:26:42;12.27;;;3.53;;
9563;SDS011;4820;50.870;4.702;2023-02-01T05:29:08;12.48;;;3.75;;
9563;SDS011;4820;50.870;4.702;2023-02-01T05:31:34;14.23;;;3.63;;
9563;SDS011;4820;50.870;4.702;2023-02-01T05:34:00;14.50;;;3.70;;
9563;SDS011;4820;50.870;4.702;2023-02-01T05:36:26;14.32;;;3.95;;
9563;SDS011;4820;50.870;4.702;2023-02-01T05:38:52;13.77;;;3.88;;
9563;SDS011;4820;50.870;4.702;2023-02-01T05:41:18;12.48;;;3.80;;
9563;SDS011;4820;50.870;4.702;2023-02-01T05:43:43;13.85;;;3.72;;
9563;SDS011;4820;50.870;4.702;2023-02-01T05:46:09;12.50;;;4.00;;
9563;SDS011;4820;50.870;4.702;2023-02-01T05:48:41;10.93;;;3.35;;
9563;SDS011;4820;50.870;4.702;2023-02-01T05:51:08;16.58;;;4.13;;
9563;SDS011;4820;50.870;4.702;2023-02-01T05:53:35;12.23;;;3.55;;
9563;SDS011;4820;50.870;4.702;2023-02-01T05:56:01;17.42;;;3.90;;
9563;SDS011;4820;50.870;4.702;2023-02-01T05:58:27;16.55;;;3.95;;
9563;SDS011;4820;50.870;4.702;2023-02-01T06:00:53;10.65;;;3.60;;
9563;SDS011;4820;50.870;4.702;2023-02-01T06:03:19;13.23;;;3.53;;
9563;SDS011;4820;50.870;4.702;2023-02-01T06:05:46;14.02;;;3.53;;
9563;SDS011;4820;50.870;4.702;2023-02-01T06:08:12;9.40;;;3.45;;
9563;SDS011;4820;50.870;4.702;2023-02-01T06:10:38;14.95;;;4.05;;
9563;SDS011;4820;50.870;4.702;2023-02-01T06:13:04;12.88;;;3.40;;
9563;SDS011;4820;50.870;4.702;2023-02-01T06:15:30;16.75;;;4.13;;
9563;SDS011;4820;50.870;4.702;2023-02-01T06:17:57;11.20;;;3.80;;
9563;SDS011;4820;50.870;4.702;2023-02-01T06:20:23;11.38;;;3.60;;
9563;SDS011;4820;50.870;4.702;2023-02-01T06:22:49;16.73;;;3.83;;
9563;SDS011;4820;50.870;4.702;2023-02-01T06:25:15;14.43;;;3.67;;
9563;SDS011;4820;50.870;4.702;2023-02-01T06:27:42;13.35;;;3.97;;
9563;SDS011;4820;50.870;4.702;2023-02-01T06:30:10;10.98;;;3.53;;
9563;SDS011;4820;50.870;4.702;2023-02-01T06:32:38;13.77;;;3.80;;
9563;SDS011;4820;50.870;4.702;2023-02-01T06:35:05;12.68;;;3.85;;
9563;SDS011;4820;50.870;4.702;2023-02-01T06:37:32;14.88;;;3.90;;
9563;SDS011;4820;50.870;4.702;2023-02-01T06:39:59;13.90;;;3.83;;
9563;SDS011;4820;50.870;4.702;2023-02-01T06:42:24;14.05;;;4.15;;
9563;SDS011;4820;50.870;4.702;2023-02-01T06:44:50;14.80;;;4.13;;
9563;SDS011;4820;50.870;4.702;2023-02-01T06:47:16;17.40;;;3.92;;
9563;SDS011;4820;50.870;4.702;2023-02-01T06:49:41;10.20;;;3.63;;
9563;SDS011;4820;50.870;4.702;2023-02-01T06:52:07;13.50;;;4.00;;
9563;SDS011;4820;50.870;4.702;2023-02-01T06:54:33;15.95;;;3.83;;
9563;SDS011;4820;50.870;4.702;2023-02-01T06:56:59;10.63;;;3.95;;
9563;SDS011;4820;50.870;4.702;2023-02-01T06:59:24;15.52;;;4.45;;
9563;SDS011;4820;50.870;4.702;2023-02-01T07:01:50;13.13;;;3.78;;
9563;SDS011;4820;50.870;4.702;2023-02-01T07:04:16;14.70;;;4.10;;
9563;SDS011;4820;50.870;4.702;2023-02-01T07:06:41;14.85;;;3.90;;
9563;SDS011;4820;50.870;4.702;2023-02-01T07:09:07;14.27;;;3.38;;
9563;SDS011;4820;50.870;4.702;2023-02-01T07:11:33;15.60;;;4.43;;
9563;SDS011;4820;50.870;4.702;2023-02-01T07:13:59;13.93;;;3.75;;
9563;SDS011;4820;50.870;4.702;2023-02-01T07:16:25;14.77;;;4.25;;
9563;SDS011;4820;50.870;4.702;2023-02-01T07:18:51;13.40;;;3.85;;
9563;SDS011;4820;50.870;4.702;2023-02-01T07:21:17;12.32;;;3.47;;
9563;SDS011;4820;50.870;4.702;2023-02-01T07:23:44;11.88;;;3.85;;
9563;SDS011;4820;50.870;4.702;2023-02-01T07:26:10;11.90;;;3.70;;
9563;SDS011;4820;50.870;4.702;2023-02-01T07:28:38;11.98;;;3.58;;
9563;SDS011;4820;50.870;4.702;2023-02-01T07:31:11;16.17;;;4.27;;
9563;SDS011;4820;50.870;4.702;2023-02-01T07:33:40;11.50;;;3.58;;
9563;SDS011;4820;50.870;4.702;2023-02-01T07:36:07;13.68;;;3.60;;
9563;SDS011;4820;50.870;4.702;2023-02-01T07:38:36;17.27;;;4.05;;
9563;SDS011;4820;50.870;4.702;2023-02-01T07:41:02;13.20;;;3.60;;
9563;SDS011;4820;50.870;4.702;2023-02-01T07:43:29;16.17;;;3.35;;
9563;SDS011;4820;50.870;4.702;2023-02-01T07:45:55;14.65;;;3.72;;
9563;SDS011;4820;50.870;4.702;2023-02-01T07:48:22;10.90;;;3.53;;
9563;SDS011;4820;50.870;4.702;2023-02-01T07:50:56;12.45;;;3.50;;
9563;SDS011;4820;50.870;4.702;2023-02-01T07:53:26;12.73;;;3.60;;
9563;SDS011;4820;50.870;4.702;2023-02-01T07:55:53;15.05;;;4.07;;
9563;SDS011;4820;50.870;4.702;2023-02-01T07:58:18;17.45;;;4.40;;
9563;SDS011;4820;50.870;4.702;2023-02-01T08:00:44;10.90;;;3.70;;
9563;SDS011;4820;50.870;4.702;2023-02-01T08:03:28;15.23;;;3.83;;
9563;SDS011;4820;50.870;4.702;2023-02-01T08:05:54;15.90;;;3.97;;
9563;SDS011;4820;50.870;4.702;2023-02-01T08:08:20;13.27;;;3.53;;
9563;SDS011;4820;50.870;4.702;2023-02-01T08:10:46;10.50;;;3.92;;
9563;SDS011;4820;50.870;4.702;2023-02-01T08:13:12;12.70;;;3.80;;
9563;SDS011;4820;50.870;4.702;2023-02-01T08:15:38;10.57;;;3.53;;
9563;SDS011;4820;50.870;4.702;2023-02-01T08:18:05;15.30;;;3.60;;
9563;SDS011;4820;50.870;4.702;2023-02-01T08:20:30;16.45;;;3.92;;
9563;SDS011;4820;50.870;4.702;2023-02-01T08:22:59;11.32;;;3.72;;
9563;SDS011;4820;50.870;4.702;2023-02-01T08:25:26;11.82;;;3.70;;
9563;SDS011;4820;50.870;4.702;2023-02-01T08:27:52;12.73;;;3.88;;
9563;SDS011;4820;50.870;4.702;2023-02-01T08:30:19;13.32;;;3.50;;
9563;SDS011;4820;50.870;4.702;2023-02-01T08:32:45;16.48;;;4.90;;
9563;SDS011;4820;50.870;4.702;2023-02-01T08:35:11;11.77;;;4.22;;
9563;SDS011;4820;50.870;4.702;2023-02-01T08:37:37;13.82;;;3.92;;
9563;SDS011;4820;50.870;4.702;2023-02-01T08:40:03;13.43;;;3.70;;
9563;SDS011;4820;50.870;4.702;2023-02-01T08:42:30;17.50;;;4.13;;
9563;SDS011;4820;50.870;4.702;2023-02-01T08:45:14;11.48;;;3.25;;
9563;SDS011;4820;50.870;4.702;2023-02-01T08:47:40;13.43;;;3.63;;
9563;SDS011;4820;50.870;4.702;2023-02-01T08:50:06;14.88;;;4.60;;
9563;SDS011;4820;50.870;4.702;2023-02-01T08:52:32;12.70;;;4.03;;
9563;SDS011;4820;50.870;4.702;2023-02-01T08:54:57;12.77;;;3.90;;
9563;SDS011;4820;50.870;4.702;2023-02-01T08:57:23;16.83;;;4.18;;
9563;SDS011;4820;50.870;4.702;2023-02-01T08:59:48;11.95;;;3.95;;
9563;SDS011;4820;50.870;4.702;2023-02-01T09:02:15;14.63;;;3.75;;
9563;SDS011;4820;50.870;4.702;2023-02-01T09:04:41;14.13;;;4.63;;
9563;SDS011;4820;50.870;4.702;2023-02-01T09:07:10;16.38;;;4.53;;
9563;SDS011;4820;50.870;4.702;2023-02-01T09:09:38;19.05;;;4.28;;
9563;SDS011;4820;50.870;4.702;2023-02-01T09:12:04;14.52;;;3.97;;
9563;SDS011;4820;50.870;4.702;2023-02-01T09:14:30;17.52;;;4.25;;
9563;SDS011;4820;50.870;4.702;2023-02-01T09:16:57;14.73;;;3.90;;
9563;SDS011;4820;50.870;4.702;2023-02-01T09:19:23;12.13;;;3.97;;
9563;SDS011;4820;50.870;4.702;2023-02-01T09:21:48;11.80;;;4.30;;
9563;SDS011;4820;50.870;4.702;2023-02-01T09:24:14;14.20;;;4.32;;
9563;SDS011;4820;50.870;4.702;2023-02-01T09:26:40;11.88;;;4.30;;
9563;SDS011;4820;50.870;4.702;2023-02-01T09:29:05;13.45;;;3.85;;
9563;SDS011;4820;50.870;4.702;2023-02-01T09:31:37;12.73;;;3.83;;
9563;SDS011;4820;50.870;4.702;2023-02-01T09:34:04;14.45;;;4.03;;
9563;SDS011;4820;50.870;4.702;2023-02-01T09:36:30;14.82;;;4.22;;
9563;SDS011;4820;50.870;4.702;2023-02-01T09:38:56;12.88;;;4.20;;
9563;SDS011;4820;50.870;4.702;2023-02-01T09:44:07;15.07;;;4.22;;
9563;SDS011;4820;50.870;4.702;2023-02-01T09:46:37;15.05;;;3.92;;
9563;SDS011;4820;50.870;4.702;2023-02-01T09:49:09;10.02;;;4.05;;
9563;SDS011;4820;50.870;4.702;2023-02-01T09:51:46;17.05;;;4.38;;
9563;SDS011;4820;50.870;4.702;2023-02-01T09:54:25;12.45;;;4.30;;
9563;SDS011;4820;50.870;4.702;2023-02-01T09:56:54;13.38;;;3.95;;
9563;SDS011;4820;50.870;4.702;2023-02-01T09:59:43;15.07;;;4.00;;
9563;SDS011;4820;50.870;4.702;2023-02-01T10:02:12;13.27;;;4.15;;
9563;SDS011;4820;50.870;4.702;2023-02-01T10:04:46;17.35;;;4.78;;
9563;SDS011;4820;50.870;4.702;2023-02-01T10:07:29;18.55;;;4.30;;
9563;SDS011;4820;50.870;4.702;2023-02-01T10:10:11;17.48;;;4.53;;
9563;SDS011;4820;50.870;4.702;2023-02-01T10:13:05;14.75;;;3.83;;
9563;SDS011;4820;50.870;4.702;2023-02-01T10:15:44;13.60;;;4.13;;
9563;SDS011;4820;50.870;4.702;2023-02-01T10:18:44;14.38;;;3.65;;
9563;SDS011;4820;50.870;4.702;2023-02-01T10:21:36;12.27;;;3.47;;
9563;SDS011;4820;50.870;4.702;2023-02-01T10:24:17;18.15;;;4.38;;
9563;SDS011;4820;50.870;4.702;2023-02-01T10:27:23;10.25;;;3.28;;
9563;SDS011;4820;50.870;4.702;2023-02-01T10:30:20;14.65;;;4.00;;
9563;SDS011;4820;50.870;4.702;2023-02-01T10:33:02;12.07;;;3.42;;
9563;SDS011;4820;50.870;4.702;2023-02-01T10:35:39;14.05;;;3.83;;
9563;SDS011;4820;50.870;4.702;2023-02-01T10:38:14;10.13;;;3.45;;
9563;SDS011;4820;50.870;4.702;2023-02-01T10:40:51;10.18;;;3.83;;
9563;SDS011;4820;50.870;4.702;2023-02-01T10:43:20;13.68;;;3.83;;
9563;SDS011;4820;50.870;4.702;2023-02-01T10:45:47;11.73;;;4.15;;
9563;SDS011;4820;50.870;4.702;2023-02-01T10:48:13;12.07;;;4.03;;
9563;SDS011;4820;50.870;4.702;2023-02-01T10:50:41;14.60;;;3.60;;
9563;SDS011;4820;50.870;4.702;2023-02-01T10:53:21;13.07;;;3.85;;
9563;SDS011;4820;50.870;4.702;2023-02-01T10:56:01;11.82;;;3.78;;
9563;SDS011;4820;50.870;4.702;2023-02-01T10:58:32;11.50;;;3.40;;
9563;SDS011;4820;50.870;4.702;2023-02-01T11:01:02;10.70;;;3.75;;
9563;SDS011;4820;50.870;4.702;2023-02-01T11:03:32;13.00;;;3.65;;
9563;SDS011;4820;50.870;4.702;2023-02-01T11:05:58;13.93;;;3.13;;
9563;SDS011;4820;50.870;4.702;2023-02-01T11:08:24;9.93;;;3.05;;
9563;SDS011;4820;50.870;4.702;2023-02-01T11:11:00;15.77;;;3.35;;
9563;SDS011;4820;50.870;4.702;2023-02-01T11:13:31;11.98;;;3.30;;
9563;SDS011;4820;50.870;4.702;2023-02-01T11:16:02;10.77;;;3.20;;
9563;SDS011;4820;50.870;4.702;2023-02-01T11:18:30;10.50;;;3.40;;
9563;SDS011;4820;50.870;4.702;2023-02-01T11:21:00;12.50;;;3.47;;
9563;SDS011;4820;50.870;4.702;2023-02-01T11:23:27;11.77;;;3.35;;
9563;SDS011;4820;50.870;4.702;2023-02-01T11:25:55;12.57;;;3.55;;
9563;SDS011;4820;50.870;4.702;2023-02-01T11:28:53;11.95;;;3.20;;
9563;SDS011;4820;50.870;4.702;2023-02-01T11:31:25;16.58;;;3.95;;
9563;SDS011;4820;50.870;4.702;2023-02-01T11:33:53;10.93;;;3.00;;
9563;SDS011;4820;50.870;4.702;2023-02-01T11:36:25;11.02;;;3.67;;
9563;SDS011;4820;50.870;4.702;2023-02-01T11:38:54;9.30;;;2.83;;
9563;SDS011;4820;50.870;4.702;2023-02-01T11:41:35;8.48;;;2.75;;
9563;SDS011;4820;50.870;4.702;2023-02-01T11:44:19;12.15;;;3.00;;
9563;SDS011;4820;50.870;4.702;2023-02-01T11:46:47;11.25;;;3.42;;
9563;SDS011;4820;50.870;4.702;2023-02-01T11:49:23;10.77;;;3.17;;
9563;SDS011;4820;50.870;4.702;2023-02-01T12:11:55;9.77;;;2.65;;
9563;SDS011;4820;50.870;4.702;2023-02-01T12:22:40;10.45;;;2.53;;
9563;SDS011;4820;50.870;4.702;2023-02-01T12:36:30;9.40;;;2.55;;
9563;SDS011;4820;50.870;4.702;2023-02-01T12:42:08;10.77;;;2.67;;
9563;SDS011;4820;50.870;4.702;2023-02-01T12:47:20;9.18;;;2.53;;
9563;SDS011;4820;50.870;4.702;2023-02-01T12:52:46;9.15;;;2.40;;
9563;SDS011;4820;50.870;4.702;2023-02-01T12:58:15;7.57;;;2.22;;
9563;SDS011;4820;50.870;4.702;2023-02-01T13:00:52;6.32;;;2.10;;
9563;SDS011;4820;50.870;4.702;2023-02-01T13:03:29;7.45;;;2.30;;
9563;SDS011;4820;50.870;4.702;2023-02-01T13:06:01;6.57;;;2.05;;
9563;SDS011;4820;50.870;4.702;2023-02-01T13:11:04;7.53;;;2.58;;
9563;SDS011;4820;50.870;4.702;2023-02-01T13:13:44;7.85;;;2.42;;
9563;SDS011;4820;50.870;4.702;2023-02-01T13:18:52;8.18;;;2.42;;
9563;SDS011;4820;50.870;4.702;2023-02-01T13:21:27;8.70;;;2.20;;
9563;SDS011;4820;50.870;4.702;2023-02-01T13:23:57;5.72;;;1.98;;
9563;SDS011;4820;50.870;4.702;2023-02-01T13:26:23;11.88;;;2.75;;
9563;SDS011;4820;50.870;4.702;2023-02-01T13:29:10;7.65;;;2.63;;
9563;SDS011;4820;50.870;4.702;2023-02-01T13:39:59;5.57;;;2.00;;
9563;SDS011;4820;50.870;4.702;2023-02-01T13:42:29;10.40;;;2.30;;
9563;SDS011;4820;50.870;4.702;2023-02-01T13:44:59;6.60;;;2.17;;
9563;SDS011;4820;50.870;4.702;2023-02-01T13:47:39;5.82;;;1.90;;
9563;SDS011;4820;50.870;4.702;2023-02-01T13:52:55;7.60;;;2.30;;
9563;SDS011;4820;50.870;4.702;2023-02-01T13:55:27;7.90;;;2.70;;
9563;SDS011;4820;50.870;4.702;2023-02-01T13:58:04;8.40;;;2.60;;
9563;SDS011;4820;50.870;4.702;2023-02-01T14:00:39;8.52;;;2.38;;
9563;SDS011;4820;50.870;4.702;2023-02-01T14:03:09;7.03;;;1.98;;
9563;SDS011;4820;50.870;4.702;2023-02-01T14:26:21;8.10;;;2.00;;
9563;SDS011;4820;50.870;4.702;2023-02-01T14:34:19;6.68;;;2.40;;
9563;SDS011;4820;50.870;4.702;2023-02-01T14:36:56;9.15;;;2.22;;
9563;SDS011;4820;50.870;4.702;2023-02-01T14:42:02;7.95;;;2.28;;
9563;SDS011;4820;50.870;4.702;2023-02-01T14:44:34;7.22;;;2.20;;
9563;SDS011;4820;50.870;4.702;2023-02-01T14:50:07;7.82;;;2.35;;
9563;SDS011;4820;50.870;4.702;2023-02-01T14:52:47;6.38;;;2.55;;
9563;SDS011;4820;50.870;4.702;2023-02-01T14:55:44;8.07;;;2.20;;
9563;SDS011;4820;50.870;4.702;2023-02-01T14:58:31;9.43;;;2.80;;
9563;SDS011;4820;50.870;4.702;2023-02-01T15:01:15;8.45;;;2.70;;
9563;SDS011;4820;50.870;4.702;2023-02-01T15:04:05;10.45;;;2.78;;
9563;SDS011;4820;50.870;4.702;2023-02-01T15:06:38;9.13;;;2.22;;
9563;SDS011;4820;50.870;4.702;2023-02-01T15:14:25;10.43;;;2.70;;
9563;SDS011;4820;50.870;4.702;2023-02-01T15:16:52;9.32;;;2.50;;
9563;SDS011;4820;50.870;4.702;2023-02-01T15:19:25;10.80;;;3.17;;
9563;SDS011;4820;50.870;4.702;2023-02-01T15:21:55;8.07;;;2.40;;
9563;SDS011;4820;50.870;4.702;2023-02-01T15:24:23;10.77;;;2.97;;
9563;SDS011;4820;50.870;4.702;2023-02-01T15:26:52;8.27;;;2.88;;
9563;SDS011;4820;50.870;4.702;2023-02-01T15:29:19;10.20;;;3.00;;
9563;SDS011;4820;50.870;4.702;2023-02-01T15:31:52;9.45;;;2.78;;
9563;SDS011;4820;50.870;4.702;2023-02-01T15:34:18;9.80;;;2.75;;
9563;SDS011;4820;50.870;4.702;2023-02-01T15:36:45;11.82;;;2.80;;
9563;SDS011;4820;50.870;4.702;2023-02-01T15:41:56;9.90;;;2.67;;
9563;SDS011;4820;50.870;4.702;2023-02-01T15:44:28;8.70;;;2.60;;
9563;SDS011;4820;50.870;4.702;2023-02-01T15:46:59;10.63;;;2.90;;
9563;SDS011;4820;50.870;4.702;2023-02-01T15:49:31;8.27;;;2.63;;
9563;SDS011;4820;50.870;4.702;2023-02-01T15:52:01;10.90;;;3.33;;
9563;SDS011;4820;50.870;4.702;2023-02-01T15:54:30;14.63;;;3.00;;
9563;SDS011;4820;50.870;4.702;2023-02-01T15:57:02;9.50;;;2.72;;
9563;SDS011;4820;50.870;4.702;2023-02-01T15:59:39;9.90;;;3.10;;
9563;SDS011;4820;50.870;4.702;2023-02-01T16:02:24;9.65;;;3.00;;
9563;SDS011;4820;50.870;4.702;2023-02-01T16:05:03;8.60;;;3.05;;
9563;SDS011;4820;50.870;4.702;2023-02-01T16:07:31;7.25;;;2.97;;
9563;SDS011;4820;50.870;4.702;2023-02-01T16:09:59;11.80;;;2.60;;
9563;SDS011;4820;50.870;4.702;2023-02-01T16:15:03;13.30;;;3.50;;
9563;SDS011;4820;50.870;4.702;2023-02-01T16:17:30;14.52;;;3.50;;
9563;SDS011;4820;50.870;4.702;2023-02-01T16:19:56;12.32;;;3.75;;
9563;SDS011;4820;50.870;4.702;2023-02-01T16:22:22;9.32;;;2.85;;
9563;SDS011;4820;50.870;4.702;2023-02-01T16:24:48;10.48;;;3.13;;
9563;SDS011;4820;50.870;4.702;2023-02-01T16:27:14;10.90;;;2.78;;
9563;SDS011;4820;50.870;4.702;2023-02-01T16:29:40;11.98;;;3.22;;
9563;SDS011;4820;50.870;4.702;2023-02-01T16:32:06;10.48;;;3.10;;
9563;SDS011;4820;50.870;4.702;2023-02-01T16:34:37;9.20;;;3.05;;
9563;SDS011;4820;50.870;4.702;2023-02-01T16:37:03;8.32;;;2.97;;
9563;SDS011;4820;50.870;4.702;2023-02-01T16:39:28;10.23;;;2.88;;
9563;SDS011;4820;50.870;4.702;2023-02-01T16:41:54;9.00;;;3.65;;
9563;SDS011;4820;50.870;4.702;2023-02-01T16:44:20;8.40;;;3.13;;
9563;SDS011;4820;50.870;4.702;2023-02-01T16:46:46;15.90;;;3.60;;
9563;SDS011;4820;50.870;4.702;2023-02-01T16:49:17;10.55;;;2.97;;
9563;SDS011;4820;50.870;4.702;2023-02-01T16:51:48;8.50;;;3.10;;
9563;SDS011;4820;50.870;4.702;2023-02-01T16:54:17;8.10;;;2.85;;
9563;SDS011;4820;50.870;4.702;2023-02-01T16:56:44;14.25;;;3.65;;
9563;SDS011;4820;50.870;4.702;2023-02-01T16:59:10;8.88;;;3.10;;
9563;SDS011;4820;50.870;4.702;2023-02-01T17:01:37;8.60;;;3.00;;
9563;SDS011;4820;50.870;4.702;2023-02-01T17:04:03;12.52;;;3.53;;
9563;SDS011;4820;50.870;4.702;2023-02-01T17:06:31;12.75;;;3.60;;
9563;SDS011;4820;50.870;4.702;2023-02-01T17:08:58;11.40;;;3.65;;
9563;SDS011;4820;50.870;4.702;2023-02-01T17:11:28;13.90;;;3.30;;
9563;SDS011;4820;50.870;4.702;2023-02-01T17:14:00;11.75;;;3.33;;
9563;SDS011;4820;50.870;4.702;2023-02-01T17:16:38;10.90;;;3.30;;
9563;SDS011;4820;50.870;4.702;2023-02-01T17:19:06;14.70;;;3.53;;
9563;SDS011;4820;50.870;4.702;2023-02-01T17:21:42;10.00;;;3.38;;
9563;SDS011;4820;50.870;4.702;2023-02-01T17:24:15;9.98;;;3.17;;
9563;SDS011;4820;50.870;4.702;2023-02-01T17:26:42;13.05;;;3.42;;
9563;SDS011;4820;50.870;4.702;2023-02-01T17:29:09;12.43;;;3.35;;
9563;SDS011;4820;50.870;4.702;2023-02-01T17:31:37;9.90;;;3.08;;
9563;SDS011;4820;50.870;4.702;2023-02-01T17:34:08;9.48;;;2.72;;
9563;SDS011;4820;50.870;4.702;2023-02-01T17:36:35;9.50;;;3.50;;
9563;SDS011;4820;50.870;4.702;2023-02-01T17:39:01;12.80;;;3.50;;
9563;SDS011;4820;50.870;4.702;2023-02-01T17:41:28;10.10;;;3.60;;
9563;SDS011;4820;50.870;4.702;2023-02-01T17:43:55;9.27;;;3.65;;
9563;SDS011;4820;50.870;4.702;2023-02-01T17:46:21;10.98;;;3.40;;
9563;SDS011;4820;50.870;4.702;2023-02-01T17:48:51;13.95;;;4.25;;
9563;SDS011;4820;50.870;4.702;2023-02-01T17:51:18;10.18;;;3.83;;
9563;SDS011;4820;50.870;4.702;2023-02-01T17:53:45;13.18;;;3.65;;
9563;SDS011;4820;50.870;4.702;2023-02-01T17:56:17;17.55;;;3.83;;
9563;SDS011;4820;50.870;4.702;2023-02-01T17:58:44;9.52;;;3.40;;